createdAt,value
2018-03-26T00:01:19.864Z,9.30
2018-03-26T00:06:22.448Z,9.30
2018-03-26T00:11:25.101Z,9.50
2018-03-26T00:16:27.702Z,9.60
2018-03-26T00:21:30.316Z,9.70
2018-03-26T00:26:32.910Z,9.80
2018-03-26T00:31:35.502Z,9.90
2018-03-26T00:36:38.853Z,10.00
2018-03-26T00:41:41.443Z,10.00
2018-03-26T00:46:44.049Z,10.10
2018-03-26T00:51:46.634Z,10.00
2018-03-26T00:56:49.244Z,10.00
2018-03-26T01:01:51.832Z,10.00
2018-03-26T01:06:54.440Z,10.00
2018-03-26T01:11:57.044Z,10.10
2018-03-26T01:16:59.641Z,10.00
2018-03-26T01:22:02.228Z,10.10
2018-03-26T01:27:04.836Z,10.20
2018-03-26T01:32:07.429Z,10.20
2018-03-26T01:37:10.009Z,9.90
2018-03-26T01:42:13.365Z,9.90
2018-03-26T01:47:15.968Z,9.90
2018-03-26T01:52:18.571Z,9.90
2018-03-26T01:57:21.193Z,9.90
2018-03-26T02:02:23.774Z,9.70
2018-03-26T02:07:26.369Z,9.40
2018-03-26T02:12:28.973Z,9.30
2018-03-26T02:17:31.570Z,9.30
2018-03-26T02:22:34.165Z,9.10
2018-03-26T02:27:36.776Z,9.10
2018-03-26T02:32:39.378Z,9.00
2018-03-26T02:37:41.998Z,8.90
2018-03-26T02:42:44.588Z,8.80
2018-03-26T02:47:47.174Z,8.60
2018-03-26T02:52:49.769Z,8.90
2018-03-26T02:57:52.373Z,9.10
2018-03-26T03:02:54.976Z,9.20
2018-03-26T03:07:57.593Z,9.30
2018-03-26T03:13:00.186Z,9.30
2018-03-26T03:18:02.788Z,9.30
2018-03-26T03:23:06.187Z,9.20
2018-03-26T03:28:08.786Z,9.10
2018-03-26T03:33:11.819Z,9.20
2018-03-26T03:38:14.409Z,9.40
2018-03-26T03:43:17.018Z,9.40
2018-03-26T03:48:19.610Z,9.50
2018-03-26T03:53:22.223Z,9.50
2018-03-26T03:58:25.720Z,9.60
2018-03-26T04:03:28.329Z,9.70
2018-03-26T04:08:30.957Z,9.80
2018-03-26T04:13:34.316Z,9.70
2018-03-26T04:18:36.901Z,9.70
2018-03-26T04:23:39.477Z,9.70
2018-03-26T04:28:42.840Z,9.60
2018-03-26T04:33:45.445Z,9.60
2018-03-26T04:38:48.036Z,9.60
2018-03-26T04:43:50.629Z,9.50
2018-03-26T04:48:53.223Z,9.40
2018-03-26T04:53:55.813Z,9.30
2018-03-26T04:58:58.421Z,9.30
2018-03-26T05:04:01.242Z,9.40
2018-03-26T05:09:03.824Z,9.40
2018-03-26T05:14:06.430Z,9.40
2018-03-26T05:19:09.029Z,9.40
2018-03-26T05:24:11.640Z,9.40
2018-03-26T05:29:14.224Z,9.40
2018-03-26T05:34:16.828Z,9.40
2018-03-26T05:39:19.417Z,9.40
2018-03-26T05:44:22.001Z,9.40
2018-03-26T05:49:25.351Z,9.40
2018-03-26T05:54:27.932Z,9.40
2018-03-26T05:59:30.593Z,9.40
2018-03-26T06:04:33.185Z,9.50
2018-03-26T06:09:35.771Z,9.60
2018-03-26T06:14:38.382Z,9.50
2018-03-26T06:19:40.955Z,9.50
2018-03-26T06:24:43.723Z,9.60
2018-03-26T06:29:46.301Z,9.60
2018-03-26T06:34:49.644Z,9.70
2018-03-26T06:39:52.219Z,9.70
2018-03-26T06:44:55.560Z,9.50
2018-03-26T06:49:58.137Z,9.50
2018-03-26T06:55:01.473Z,9.60
2018-03-26T07:00:04.090Z,9.60
2018-03-26T07:05:06.683Z,9.60
2018-03-26T07:10:09.279Z,9.70
2018-03-26T07:15:11.877Z,9.80
2018-03-26T07:20:14.499Z,9.80
2018-03-26T07:25:17.118Z,9.70
2018-03-26T07:30:20.479Z,9.50
2018-03-26T07:35:23.086Z,9.40
2018-03-26T07:40:25.705Z,9.50
2018-03-26T07:45:28.330Z,9.30
2018-03-26T07:50:31.719Z,9.20
2018-03-26T07:55:34.304Z,9.10
2018-03-26T08:00:36.940Z,9.20
2018-03-26T08:05:39.527Z,9.30
2018-03-26T08:10:42.952Z,9.20
2018-03-26T08:15:45.551Z,9.10
2018-03-26T08:20:48.139Z,9.00
2018-03-26T08:25:50.739Z,9.20
2018-03-26T08:30:53.316Z,9.30
2018-03-26T08:35:55.982Z,9.40
2018-03-26T08:40:58.582Z,9.00
2018-03-26T08:46:01.241Z,9.00
2018-03-26T08:51:04.506Z,8.90
2018-03-26T08:56:07.093Z,8.70
2018-03-26T09:01:10.462Z,8.70
2018-03-26T09:06:13.646Z,8.70
2018-03-26T09:11:17.017Z,8.90
2018-03-26T09:16:19.642Z,8.90
2018-03-26T09:21:22.483Z,9.50
2018-03-26T09:26:25.598Z,9.40
2018-03-26T09:31:28.505Z,9.40
2018-03-26T09:36:31.106Z,9.60
2018-03-26T09:41:34.022Z,9.70
2018-03-26T09:46:37.356Z,9.90
2018-03-26T09:51:39.967Z,10.20
2018-03-26T09:56:42.822Z,10.40
2018-03-26T10:01:52.048Z,10.60
2018-03-26T10:06:55.097Z,10.60
2018-03-26T10:11:57.681Z,10.30
2018-03-26T10:17:01.678Z,10.50
2018-03-26T10:22:04.298Z,10.40
2018-03-26T10:27:06.999Z,10.30
2018-03-26T10:32:10.225Z,10.50
2018-03-26T10:37:13.650Z,11.00
2018-03-26T10:42:17.011Z,11.20
2018-03-26T10:47:20.051Z,11.20
2018-03-26T10:52:22.654Z,11.30
2018-03-26T10:57:25.318Z,11.40
2018-03-26T11:02:28.583Z,11.70
2018-03-26T11:07:32.617Z,11.70
2018-03-26T11:12:35.445Z,11.40
2018-03-26T11:17:38.635Z,11.40
2018-03-26T11:22:42.004Z,11.20
2018-03-26T11:27:45.255Z,11.20
2018-03-26T11:32:47.926Z,11.30
2018-03-26T11:37:50.489Z,11.30
2018-03-26T11:42:53.073Z,11.20
2018-03-26T11:47:56.891Z,11.70
2018-03-26T11:52:59.767Z,11.60
2018-03-26T11:58:02.951Z,11.50
2018-03-26T12:03:05.870Z,11.60
2018-03-26T12:08:08.493Z,11.70
2018-03-26T12:13:11.086Z,11.80
2018-03-26T12:18:13.983Z,11.90
2018-03-26T12:23:28.423Z,11.80
2018-03-26T12:28:43.745Z,11.70
2018-03-26T12:33:58.290Z,11.70
2018-03-26T12:39:00.904Z,11.80
2018-03-26T12:44:04.255Z,12.40
2018-03-26T12:49:06.992Z,12.30
2018-03-26T12:54:12.273Z,12.60
2018-03-26T12:59:14.858Z,12.90
2018-03-26T13:09:51.993Z,12.90
2018-03-26T13:14:55.353Z,13.00
2018-03-26T13:19:57.945Z,13.00
2018-03-26T13:25:00.571Z,12.70
2018-03-26T13:30:03.935Z,11.50
2018-03-26T13:35:07.343Z,11.60
2018-03-26T13:40:09.946Z,11.60
2018-03-26T13:45:13.339Z,11.70
2018-03-26T13:50:15.950Z,11.70
2018-03-26T13:55:18.563Z,11.30
2018-03-26T14:00:21.739Z,11.40
2018-03-26T14:05:25.227Z,11.40
2018-03-26T14:10:40.700Z,11.60
2018-03-26T14:15:55.648Z,11.60
2018-03-26T14:20:58.789Z,11.60
2018-03-26T14:26:01.381Z,11.70
2018-03-26T14:31:04.607Z,11.80
2018-03-26T14:36:07.202Z,12.20
2018-03-26T14:41:09.834Z,12.40
2018-03-26T14:46:13.670Z,12.90
2018-03-26T14:51:17.059Z,12.80
2018-03-26T14:56:20.492Z,12.80
2018-03-26T15:01:23.117Z,12.80
2018-03-26T15:06:25.701Z,12.90
2018-03-26T15:11:29.063Z,12.70
2018-03-26T15:16:31.932Z,12.70
2018-03-26T15:21:35.276Z,12.80
2018-03-26T15:26:37.866Z,12.70
2018-03-26T15:31:40.477Z,12.80
2018-03-26T15:36:43.071Z,12.70
2018-03-26T15:41:46.977Z,12.70
2018-03-26T15:46:50.072Z,12.80
2018-03-26T15:51:52.672Z,12.70
2018-03-26T15:56:56.260Z,12.60
2018-03-26T16:01:58.688Z,12.40
2018-03-26T16:07:01.689Z,12.30
2018-03-26T16:12:04.876Z,12.10
2018-03-26T16:17:07.828Z,12.10
2018-03-26T16:22:11.346Z,12.10
2018-03-26T16:27:15.203Z,12.00
2018-03-26T16:32:17.886Z,12.00
2018-03-26T16:37:21.481Z,12.00
2018-03-26T16:42:24.861Z,12.00
2018-03-26T16:47:27.496Z,12.00
2018-03-26T16:52:30.564Z,12.00
2018-03-26T16:57:33.166Z,12.10
2018-03-26T17:02:36.081Z,12.00
2018-03-26T17:07:38.873Z,12.00
2018-03-26T17:12:42.337Z,11.80
2018-03-26T17:17:44.974Z,11.70
2018-03-26T17:22:47.669Z,11.60
2018-03-26T17:27:50.290Z,11.60
2018-03-26T17:32:53.669Z,11.50
2018-03-26T17:37:56.266Z,11.50
2018-03-26T17:42:59.255Z,11.60
2018-03-26T17:48:02.899Z,11.70
2018-03-26T17:53:06.120Z,11.70
2018-03-26T17:58:08.758Z,11.70
2018-03-26T18:03:12.175Z,11.70
2018-03-26T18:08:15.938Z,11.50
2018-03-26T18:13:18.538Z,11.50
2018-03-26T18:18:21.137Z,11.40
2018-03-26T18:23:23.744Z,11.40
2018-03-26T18:28:26.341Z,11.30
2018-03-26T18:33:28.981Z,11.30
2018-03-26T18:38:32.119Z,11.40
2018-03-26T18:43:35.939Z,11.30
2018-03-26T18:48:39.360Z,11.30
2018-03-26T18:53:45.363Z,11.10
2018-03-26T18:58:48.004Z,11.10
2018-03-26T19:03:50.822Z,11.00
2018-03-26T19:08:54.578Z,10.90
2018-03-26T19:13:57.946Z,10.80
2018-03-26T19:19:00.531Z,10.70
2018-03-26T19:24:03.914Z,10.80
2018-03-26T19:29:06.530Z,10.70
2018-03-26T19:34:09.579Z,10.60
2018-03-26T19:39:12.284Z,10.60
2018-03-26T19:44:14.892Z,10.50
2018-03-26T19:49:17.514Z,10.50
2018-03-26T19:54:20.110Z,10.40
2018-03-26T19:59:22.722Z,10.40
2018-03-26T20:04:25.731Z,10.30
2018-03-26T20:09:28.924Z,10.30
2018-03-26T20:14:31.793Z,10.20
2018-03-26T20:19:35.191Z,10.20
2018-03-26T20:24:37.784Z,10.30
2018-03-26T20:29:40.483Z,10.30
2018-03-26T20:34:43.534Z,10.20
2018-03-26T20:39:46.967Z,9.90
2018-03-26T20:44:49.610Z,9.80
2018-03-26T20:49:52.214Z,9.70
2018-03-26T20:54:54.798Z,9.60
2018-03-26T20:59:57.404Z,9.40
2018-03-26T21:05:00.746Z,9.10
2018-03-26T21:10:04.038Z,9.20
2018-03-26T21:15:13.217Z,9.40
2018-03-26T21:20:16.556Z,9.70
2018-03-26T21:25:19.145Z,9.70
2018-03-26T21:30:21.749Z,9.80
2018-03-26T21:35:24.345Z,9.80
2018-03-26T21:40:26.935Z,9.80
2018-03-26T21:45:30.011Z,9.90
2018-03-26T21:50:34.091Z,9.90
2018-03-26T21:55:36.719Z,9.90
2018-03-26T22:00:39.651Z,9.80
2018-03-26T22:05:43.338Z,9.70
2018-03-26T22:10:45.944Z,9.80
2018-03-26T22:15:48.561Z,9.70
2018-03-26T22:20:51.242Z,9.60
2018-03-26T22:25:53.843Z,9.50
2018-03-26T22:30:56.440Z,9.40
2018-03-26T22:35:59.029Z,9.30
2018-03-26T22:41:02.268Z,9.20
2018-03-26T22:46:05.621Z,9.20
2018-03-26T22:51:08.490Z,9.20
2018-03-26T22:56:11.849Z,9.20
2018-03-26T23:01:14.453Z,9.20
2018-03-26T23:06:17.814Z,9.10
2018-03-26T23:11:20.686Z,9.10
2018-03-26T23:16:24.377Z,9.20
2018-03-26T23:21:26.981Z,9.10
2018-03-26T23:26:29.804Z,9.20
2018-03-26T23:31:33.176Z,9.10
2018-03-26T23:36:36.489Z,9.10
2018-03-26T23:41:39.073Z,9.10
2018-03-26T23:46:41.705Z,9.00
2018-03-26T23:51:44.313Z,8.90
2018-03-26T23:56:48.875Z,8.90
